sensor_id;sensor_type;location;lat;lon;timestamp;P1;durP1;ratioP1;P2;durP2;ratioP2
23360;SDS011;11852;50.082;18.554;2023-03-21T00:00:14;46.0;;;28.0;;
23360;SDS011;11852;50.082;18.554;2023-03-21T00:01:21;49.0;;;30.0;;
23360;SDS011;11852;50.082;18.554;2023-03-21T00:02:28;49.0;;;29.0;;
23360;SDS011;11852;50.082;18.554;2023-03-21T00:03:35;48.0;;;30.0;;
23360;SDS011;11852;50.082;18.554;2023-03-21T00:04:42;48.0;;;30.0;;
23360;SDS011;11852;50.082;18.554;2023-03-21T00:05:49;48.0;;;28.0;;
23360;SDS011;11852;50.082;18.554;2023-03-21T00:06:55;51.0;;;30.0;;
23360;SDS011;11852;50.082;18.554;2023-03-21T00:08:02;48.0;;;29.0;;
23360;SDS011;11852;50.082;18.554;2023-03-21T00:09:09;50.0;;;29.0;;
23360;SDS011;11852;50.082;18.554;2023-03-21T00:10:16;45.0;;;27.0;;
23360;SDS011;11852;50.082;18.554;2023-03-21T00:11:23;59.0;;;35.0;;
23360;SDS011;11852;50.082;18.554;2023-03-21T00:12:30;50.0;;;29.0;;
23360;SDS011;11852;50.082;18.554;2023-03-21T00:13:41;47.0;;;28.0;;
23360;SDS011;11852;50.082;18.554;2023-03-21T00:14:47;40.0;;;23.0;;
23360;SDS011;11852;50.082;18.554;2023-03-21T00:15:54;38.0;;;23.0;;
23360;SDS011;11852;50.082;18.554;2023-03-21T00:17:01;35.0;;;22.0;;
23360;SDS011;11852;50.082;18.554;2023-03-21T00:18:07;28.0;;;18.0;;
23360;SDS011;11852;50.082;18.554;2023-03-21T00:19:15;27.0;;;16.0;;
23360;SDS011;11852;50.082;18.554;2023-03-21T00:20:21;25.0;;;16.0;;
23360;SDS011;11852;50.082;18.554;2023-03-21T00:21:28;22.0;;;13.0;;
23360;SDS011;11852;50.082;18.554;2023-03-21T00:22:35;19.0;;;12.0;;
23360;SDS011;11852;50.082;18.554;2023-03-21T00:23:42;19.0;;;12.0;;
23360;SDS011;11852;50.082;18.554;2023-03-21T00:24:49;17.0;;;11.0;;
23360;SDS011;11852;50.082;18.554;2023-03-21T00:25:56;17.0;;;10.0;;
23360;SDS011;11852;50.082;18.554;2023-03-21T00:27:03;18.0;;;11.0;;
23360;SDS011;11852;50.082;18.554;2023-03-21T00:28:09;13.0;;;8.0;;
23360;SDS011;11852;50.082;18.554;2023-03-21T00:29:16;12.0;;;8.0;;
23360;SDS011;11852;50.082;18.554;2023-03-21T00:30:23;12.0;;;8.0;;
23360;SDS011;11852;50.082;18.554;2023-03-21T00:31:30;11.0;;;7.0;;
23360;SDS011;11852;50.082;18.554;2023-03-21T00:32:37;11.0;;;7.0;;
23360;SDS011;11852;50.082;18.554;2023-03-21T00:33:45;12.0;;;7.0;;
23360;SDS011;11852;50.082;18.554;2023-03-21T00:34:52;12.0;;;7.0;;
23360;SDS011;11852;50.082;18.554;2023-03-21T00:35:59;12.0;;;7.0;;
23360;SDS011;11852;50.082;18.554;2023-03-21T00:37:05;12.0;;;7.0;;
23360;SDS011;11852;50.082;18.554;2023-03-21T00:38:13;12.0;;;6.0;;
23360;SDS011;11852;50.082;18.554;2023-03-21T00:39:19;12.0;;;7.0;;
23360;SDS011;11852;50.082;18.554;2023-03-21T00:40:26;12.0;;;7.0;;
23360;SDS011;11852;50.082;18.554;2023-03-21T00:41:33;11.0;;;7.0;;
23360;SDS011;11852;50.082;18.554;2023-03-21T00:42:40;11.0;;;6.0;;
23360;SDS011;11852;50.082;18.554;2023-03-21T00:43:48;10.0;;;6.0;;
23360;SDS011;11852;50.082;18.554;2023-03-21T00:44:55;10.0;;;6.0;;
23360;SDS011;11852;50.082;18.554;2023-03-21T00:46:02;10.0;;;6.0;;
23360;SDS011;11852;50.082;18.554;2023-03-21T00:47:10;10.0;;;6.0;;
23360;SDS011;11852;50.082;18.554;2023-03-21T00:48:16;10.0;;;6.0;;
23360;SDS011;11852;50.082;18.554;2023-03-21T00:49:23;9.0;;;6.0;;
23360;SDS011;11852;50.082;18.554;2023-03-21T00:50:30;10.0;;;5.0;;
23360;SDS011;11852;50.082;18.554;2023-03-21T00:51:36;11.0;;;6.0;;
23360;SDS011;11852;50.082;18.554;2023-03-21T00:52:43;10.0;;;6.0;;
23360;SDS011;11852;50.082;18.554;2023-03-21T00:53:51;11.0;;;6.0;;
23360;SDS011;11852;50.082;18.554;2023-03-21T00:54:57;11.0;;;6.0;;
23360;SDS011;11852;50.082;18.554;2023-03-21T00:56:04;11.0;;;5.0;;
23360;SDS011;11852;50.082;18.554;2023-03-21T00:57:11;11.0;;;6.0;;
23360;SDS011;11852;50.082;18.554;2023-03-21T00:58:18;12.0;;;6.0;;
23360;SDS011;11852;50.082;18.554;2023-03-21T00:59:25;12.0;;;6.0;;
23360;SDS011;11852;50.082;18.554;2023-03-21T01:00:34;14.0;;;7.0;;
23360;SDS011;11852;50.082;18.554;2023-03-21T01:01:41;17.0;;;9.0;;
23360;SDS011;11852;50.082;18.554;2023-03-21T01:02:53;17.0;;;9.0;;
23360;SDS011;11852;50.082;18.554;2023-03-21T01:04:00;17.0;;;9.0;;
23360;SDS011;11852;50.082;18.554;2023-03-21T01:05:08;17.0;;;9.0;;
23360;SDS011;11852;50.082;18.554;2023-03-21T01:06:14;17.0;;;10.0;;
23360;SDS011;11852;50.082;18.554;2023-03-21T01:07:22;19.0;;;10.0;;
23360;SDS011;11852;50.082;18.554;2023-03-21T01:08:29;18.0;;;10.0;;
23360;SDS011;11852;50.082;18.554;2023-03-21T01:09:35;19.0;;;9.0;;
23360;SDS011;11852;50.082;18.554;2023-03-21T01:10:43;18.0;;;9.0;;
23360;SDS011;11852;50.082;18.554;2023-03-21T01:11:49;16.0;;;8.0;;
23360;SDS011;11852;50.082;18.554;2023-03-21T01:12:56;11.0;;;7.0;;
23360;SDS011;11852;50.082;18.554;2023-03-21T01:14:03;14.0;;;8.0;;
23360;SDS011;11852;50.082;18.554;2023-03-21T01:15:10;13.0;;;7.0;;
23360;SDS011;11852;50.082;18.554;2023-03-21T01:16:17;13.0;;;7.0;;
23360;SDS011;11852;50.082;18.554;2023-03-21T01:17:24;13.0;;;8.0;;
23360;SDS011;11852;50.082;18.554;2023-03-21T01:18:31;13.0;;;8.0;;
23360;SDS011;11852;50.082;18.554;2023-03-21T01:19:38;14.0;;;7.0;;
23360;SDS011;11852;50.082;18.554;2023-03-21T01:20:45;12.0;;;7.0;;
23360;SDS011;11852;50.082;18.554;2023-03-21T01:21:52;12.0;;;7.0;;
23360;SDS011;11852;50.082;18.554;2023-03-21T01:22:58;12.0;;;7.0;;
23360;SDS011;11852;50.082;18.554;2023-03-21T01:24:06;12.0;;;7.0;;
23360;SDS011;11852;50.082;18.554;2023-03-21T01:25:13;13.0;;;7.0;;
23360;SDS011;11852;50.082;18.554;2023-03-21T01:26:21;14.0;;;8.0;;
23360;SDS011;11852;50.082;18.554;2023-03-21T01:27:28;13.0;;;7.0;;
23360;SDS011;11852;50.082;18.554;2023-03-21T01:28:35;13.0;;;8.0;;
23360;SDS011;11852;50.082;18.554;2023-03-21T01:29:41;13.0;;;8.0;;
23360;SDS011;11852;50.082;18.554;2023-03-21T01:30:49;14.0;;;9.0;;
23360;SDS011;11852;50.082;18.554;2023-03-21T01:31:55;14.0;;;9.0;;
23360;SDS011;11852;50.082;18.554;2023-03-21T01:33:02;13.0;;;9.0;;
23360;SDS011;11852;50.082;18.554;2023-03-21T01:34:09;16.0;;;10.0;;
23360;SDS011;11852;50.082;18.554;2023-03-21T01:35:16;17.0;;;10.0;;
23360;SDS011;11852;50.082;18.554;2023-03-21T01:36:24;17.0;;;10.0;;
23360;SDS011;11852;50.082;18.554;2023-03-21T01:37:30;15.0;;;9.0;;
23360;SDS011;11852;50.082;18.554;2023-03-21T01:38:37;16.0;;;10.0;;
23360;SDS011;11852;50.082;18.554;2023-03-21T01:39:47;14.0;;;9.0;;
23360;SDS011;11852;50.082;18.554;2023-03-21T01:40:54;16.0;;;10.0;;
23360;SDS011;11852;50.082;18.554;2023-03-21T01:42:01;14.0;;;9.0;;
23360;SDS011;11852;50.082;18.554;2023-03-21T01:43:17;16.0;;;10.0;;
23360;SDS011;11852;50.082;18.554;2023-03-21T01:44:18;18.0;;;11.0;;
23360;SDS011;11852;50.082;18.554;2023-03-21T01:47:54;23.0;;;13.0;;
23360;SDS011;11852;50.082;18.554;2023-03-21T01:50:14;21.0;;;10.0;;
23360;SDS011;11852;50.082;18.554;2023-03-21T01:51:21;18.0;;;11.0;;
23360;SDS011;11852;50.082;18.554;2023-03-21T01:52:30;15.0;;;10.0;;
23360;SDS011;11852;50.082;18.554;2023-03-21T01:53:38;15.0;;;9.0;;
23360;SDS011;11852;50.082;18.554;2023-03-21T01:54:44;13.0;;;8.0;;
23360;SDS011;11852;50.082;18.554;2023-03-21T01:55:51;13.0;;;8.0;;
23360;SDS011;11852;50.082;18.554;2023-03-21T01:57:00;12.0;;;9.0;;
23360;SDS011;11852;50.082;18.554;2023-03-21T01:58:06;12.0;;;8.0;;
23360;SDS011;11852;50.082;18.554;2023-03-21T01:59:18;13.0;;;8.0;;
23360;SDS011;11852;50.082;18.554;2023-03-21T02:00:23;18.0;;;9.0;;
23360;SDS011;11852;50.082;18.554;2023-03-21T02:01:30;15.0;;;9.0;;
23360;SDS011;11852;50.082;18.554;2023-03-21T02:02:38;16.0;;;9.0;;
23360;SDS011;11852;50.082;18.554;2023-03-21T02:03:49;16.0;;;9.0;;
23360;SDS011;11852;50.082;18.554;2023-03-21T02:04:56;16.0;;;9.0;;
23360;SDS011;11852;50.082;18.554;2023-03-21T02:06:08;14.0;;;9.0;;
23360;SDS011;11852;50.082;18.554;2023-03-21T02:07:14;14.0;;;9.0;;
23360;SDS011;11852;50.082;18.554;2023-03-21T02:08:20;17.0;;;10.0;;
23360;SDS011;11852;50.082;18.554;2023-03-21T02:09:28;16.0;;;10.0;;
23360;SDS011;11852;50.082;18.554;2023-03-21T02:10:34;16.0;;;10.0;;
23360;SDS011;11852;50.082;18.554;2023-03-21T02:11:41;16.0;;;11.0;;
23360;SDS011;11852;50.082;18.554;2023-03-21T02:12:47;17.0;;;11.0;;
23360;SDS011;11852;50.082;18.554;2023-03-21T02:13:54;15.0;;;10.0;;
23360;SDS011;11852;50.082;18.554;2023-03-21T02:15:01;16.0;;;11.0;;
23360;SDS011;11852;50.082;18.554;2023-03-21T02:17:21;15.0;;;10.0;;
23360;SDS011;11852;50.082;18.554;2023-03-21T02:19:49;14.0;;;9.0;;
23360;SDS011;11852;50.082;18.554;2023-03-21T02:22:17;15.0;;;10.0;;
23360;SDS011;11852;50.082;18.554;2023-03-21T02:28:27;16.0;;;10.0;;
23360;SDS011;11852;50.082;18.554;2023-03-21T02:35:47;14.0;;;10.0;;
23360;SDS011;11852;50.082;18.554;2023-03-21T02:38:08;15.0;;;10.0;;
23360;SDS011;11852;50.082;18.554;2023-03-21T02:40:34;14.0;;;10.0;;
23360;SDS011;11852;50.082;18.554;2023-03-21T02:44:16;14.0;;;9.0;;
23360;SDS011;11852;50.082;18.554;2023-03-21T02:45:26;15.0;;;9.0;;
23360;SDS011;11852;50.082;18.554;2023-03-21T02:48:59;15.0;;;10.0;;
23360;SDS011;11852;50.082;18.554;2023-03-21T02:51:21;14.0;;;10.0;;
23360;SDS011;11852;50.082;18.554;2023-03-21T02:52:28;17.0;;;10.0;;
23360;SDS011;11852;50.082;18.554;2023-03-21T02:53:36;14.0;;;9.0;;
23360;SDS011;11852;50.082;18.554;2023-03-21T02:54:41;15.0;;;10.0;;
23360;SDS011;11852;50.082;18.554;2023-03-21T02:55:49;14.0;;;10.0;;
23360;SDS011;11852;50.082;18.554;2023-03-21T02:56:56;15.0;;;10.0;;
23360;SDS011;11852;50.082;18.554;2023-03-21T02:58:03;15.0;;;11.0;;
23360;SDS011;11852;50.082;18.554;2023-03-21T02:59:09;14.0;;;10.0;;
23360;SDS011;11852;50.082;18.554;2023-03-21T03:00:17;15.0;;;10.0;;
23360;SDS011;11852;50.082;18.554;2023-03-21T03:01:26;15.0;;;10.0;;
23360;SDS011;11852;50.082;18.554;2023-03-21T03:02:33;17.0;;;11.0;;
23360;SDS011;11852;50.082;18.554;2023-03-21T03:03:40;14.0;;;10.0;;
23360;SDS011;11852;50.082;18.554;2023-03-21T03:04:47;16.0;;;11.0;;
23360;SDS011;11852;50.082;18.554;2023-03-21T03:05:55;17.0;;;11.0;;
23360;SDS011;11852;50.082;18.554;2023-03-21T03:07:04;16.0;;;11.0;;
23360;SDS011;11852;50.082;18.554;2023-03-21T03:12:02;19.0;;;13.0;;
23360;SDS011;11852;50.082;18.554;2023-03-21T03:19:24;18.0;;;13.0;;
23360;SDS011;11852;50.082;18.554;2023-03-21T03:20:31;19.0;;;13.0;;
23360;SDS011;11852;50.082;18.554;2023-03-21T03:21:40;19.0;;;13.0;;
23360;SDS011;11852;50.082;18.554;2023-03-21T03:22:57;20.0;;;14.0;;
23360;SDS011;11852;50.082;18.554;2023-03-21T03:24:01;21.0;;;13.0;;
23360;SDS011;11852;50.082;18.554;2023-03-21T03:25:08;21.0;;;14.0;;
23360;SDS011;11852;50.082;18.554;2023-03-21T03:26:16;19.0;;;13.0;;
23360;SDS011;11852;50.082;18.554;2023-03-21T03:27:23;20.0;;;14.0;;
23360;SDS011;11852;50.082;18.554;2023-03-21T03:28:37;19.0;;;13.0;;
23360;SDS011;11852;50.082;18.554;2023-03-21T03:29:43;19.0;;;13.0;;
23360;SDS011;11852;50.082;18.554;2023-03-21T03:30:49;17.0;;;12.0;;
23360;SDS011;11852;50.082;18.554;2023-03-21T03:31:58;18.0;;;12.0;;
23360;SDS011;11852;50.082;18.554;2023-03-21T03:33:05;18.0;;;12.0;;
23360;SDS011;11852;50.082;18.554;2023-03-21T03:34:14;21.0;;;14.0;;
23360;SDS011;11852;50.082;18.554;2023-03-21T03:35:19;19.0;;;12.0;;
23360;SDS011;11852;50.082;18.554;2023-03-21T03:36:28;20.0;;;13.0;;
23360;SDS011;11852;50.082;18.554;2023-03-21T03:37:33;20.0;;;14.0;;
23360;SDS011;11852;50.082;18.554;2023-03-21T03:38:40;20.0;;;14.0;;
23360;SDS011;11852;50.082;18.554;2023-03-21T03:41:05;16.0;;;10.0;;
23360;SDS011;11852;50.082;18.554;2023-03-21T03:42:13;16.0;;;11.0;;
23360;SDS011;11852;50.082;18.554;2023-03-21T03:43:20;15.0;;;10.0;;
23360;SDS011;11852;50.082;18.554;2023-03-21T03:44:27;16.0;;;11.0;;
23360;SDS011;11852;50.082;18.554;2023-03-21T03:45:35;17.0;;;11.0;;
23360;SDS011;11852;50.082;18.554;2023-03-21T03:46:46;16.0;;;11.0;;
23360;SDS011;11852;50.082;18.554;2023-03-21T03:47:54;15.0;;;10.0;;
23360;SDS011;11852;50.082;18.554;2023-03-21T03:49:03;15.0;;;11.0;;
23360;SDS011;11852;50.082;18.554;2023-03-21T03:50:12;17.0;;;11.0;;
23360;SDS011;11852;50.082;18.554;2023-03-21T03:51:21;17.0;;;11.0;;
23360;SDS011;11852;50.082;18.554;2023-03-21T03:52:30;17.0;;;12.0;;
23360;SDS011;11852;50.082;18.554;2023-03-21T03:53:37;16.0;;;11.0;;
23360;SDS011;11852;50.082;18.554;2023-03-21T03:54:45;18.0;;;11.0;;
23360;SDS011;11852;50.082;18.554;2023-03-21T03:55:52;17.0;;;11.0;;
23360;SDS011;11852;50.082;18.554;2023-03-21T03:56:58;16.0;;;10.0;;
23360;SDS011;11852;50.082;18.554;2023-03-21T03:58:05;17.0;;;11.0;;
23360;SDS011;11852;50.082;18.554;2023-03-21T03:59:12;17.0;;;11.0;;
23360;SDS011;11852;50.082;18.554;2023-03-21T04:00:18;18.0;;;12.0;;
23360;SDS011;11852;50.082;18.554;2023-03-21T04:01:25;18.0;;;12.0;;
23360;SDS011;11852;50.082;18.554;2023-03-21T04:02:32;18.0;;;12.0;;
23360;SDS011;11852;50.082;18.554;2023-03-21T04:03:40;16.0;;;10.0;;
23360;SDS011;11852;50.082;18.554;2023-03-21T04:04:46;15.0;;;10.0;;
23360;SDS011;11852;50.082;18.554;2023-03-21T04:05:53;17.0;;;11.0;;
23360;SDS011;11852;50.082;18.554;2023-03-21T04:07:00;17.0;;;12.0;;
23360;SDS011;11852;50.082;18.554;2023-03-21T04:08:07;18.0;;;12.0;;
23360;SDS011;11852;50.082;18.554;2023-03-21T04:09:14;17.0;;;11.0;;
23360;SDS011;11852;50.082;18.554;2023-03-21T04:10:21;16.0;;;11.0;;
23360;SDS011;11852;50.082;18.554;2023-03-21T04:11:28;19.0;;;12.0;;
23360;SDS011;11852;50.082;18.554;2023-03-21T04:12:34;18.0;;;12.0;;
23360;SDS011;11852;50.082;18.554;2023-03-21T04:13:41;17.0;;;12.0;;
23360;SDS011;11852;50.082;18.554;2023-03-21T04:14:49;17.0;;;12.0;;
23360;SDS011;11852;50.082;18.554;2023-03-21T04:15:56;17.0;;;12.0;;
23360;SDS011;11852;50.082;18.554;2023-03-21T04:17:03;15.0;;;10.0;;
23360;SDS011;11852;50.082;18.554;2023-03-21T04:18:10;16.0;;;11.0;;
23360;SDS011;11852;50.082;18.554;2023-03-21T04:19:17;17.0;;;11.0;;
23360;SDS011;11852;50.082;18.554;2023-03-21T04:20:23;17.0;;;11.0;;
23360;SDS011;11852;50.082;18.554;2023-03-21T04:21:30;14.0;;;9.0;;
23360;SDS011;11852;50.082;18.554;2023-03-21T04:22:39;16.0;;;11.0;;
23360;SDS011;11852;50.082;18.554;2023-03-21T04:23:46;17.0;;;12.0;;
23360;SDS011;11852;50.082;18.554;2023-03-21T04:24:52;19.0;;;12.0;;
23360;SDS011;11852;50.082;18.554;2023-03-21T04:25:59;17.0;;;11.0;;
23360;SDS011;11852;50.082;18.554;2023-03-21T04:27:06;18.0;;;12.0;;
23360;SDS011;11852;50.082;18.554;2023-03-21T04:28:13;19.0;;;12.0;;
23360;SDS011;11852;50.082;18.554;2023-03-21T04:29:20;19.0;;;12.0;;
23360;SDS011;11852;50.082;18.554;2023-03-21T04:30:27;19.0;;;12.0;;
23360;SDS011;11852;50.082;18.554;2023-03-21T04:31:35;19.0;;;13.0;;
23360;SDS011;11852;50.082;18.554;2023-03-21T04:32:42;18.0;;;12.0;;
23360;SDS011;11852;50.082;18.554;2023-03-21T04:33:49;18.0;;;12.0;;
23360;SDS011;11852;50.082;18.554;2023-03-21T04:34:55;18.0;;;13.0;;
23360;SDS011;11852;50.082;18.554;2023-03-21T04:36:03;18.0;;;12.0;;
23360;SDS011;11852;50.082;18.554;2023-03-21T04:37:10;19.0;;;12.0;;
23360;SDS011;11852;50.082;18.554;2023-03-21T04:38:17;17.0;;;12.0;;
23360;SDS011;11852;50.082;18.554;2023-03-21T04:39:24;20.0;;;13.0;;
23360;SDS011;11852;50.082;18.554;2023-03-21T04:40:31;17.0;;;12.0;;
23360;SDS011;11852;50.082;18.554;2023-03-21T04:41:42;19.0;;;12.0;;
23360;SDS011;11852;50.082;18.554;2023-03-21T04:42:48;17.0;;;13.0;;
23360;SDS011;11852;50.082;18.554;2023-03-21T04:43:55;18.0;;;13.0;;
23360;SDS011;11852;50.082;18.554;2023-03-21T04:45:02;16.0;;;11.0;;
23360;SDS011;11852;50.082;18.554;2023-03-21T04:46:09;18.0;;;12.0;;
23360;SDS011;11852;50.082;18.554;2023-03-21T04:47:16;16.0;;;11.0;;
23360;SDS011;11852;50.082;18.554;2023-03-21T04:48:23;17.0;;;12.0;;
23360;SDS011;11852;50.082;18.554;2023-03-21T04:49:30;18.0;;;12.0;;
23360;SDS011;11852;50.082;18.554;2023-03-21T04:50:37;19.0;;;12.0;;
23360;SDS011;11852;50.082;18.554;2023-03-21T04:51:43;17.0;;;12.0;;
23360;SDS011;11852;50.082;18.554;2023-03-21T04:52:50;17.0;;;12.0;;
23360;SDS011;11852;50.082;18.554;2023-03-21T04:53:57;18.0;;;12.0;;
23360;SDS011;11852;50.082;18.554;2023-03-21T04:55:04;16.0;;;11.0;;
23360;SDS011;11852;50.082;18.554;2023-03-21T04:56:11;19.0;;;12.0;;
23360;SDS011;11852;50.082;18.554;2023-03-21T04:57:18;17.0;;;12.0;;
23360;SDS011;11852;50.082;18.554;2023-03-21T04:58:25;17.0;;;11.0;;
23360;SDS011;11852;50.082;18.554;2023-03-21T04:59:32;19.0;;;12.0;;
23360;SDS011;11852;50.082;18.554;2023-03-21T05:00:40;16.0;;;11.0;;
23360;SDS011;11852;50.082;18.554;2023-03-21T05:01:47;16.0;;;11.0;;
23360;SDS011;11852;50.082;18.554;2023-03-21T05:02:54;17.0;;;11.0;;
23360;SDS011;11852;50.082;18.554;2023-03-21T05:04:02;18.0;;;12.0;;
23360;SDS011;11852;50.082;18.554;2023-03-21T05:05:08;18.0;;;12.0;;
23360;SDS011;11852;50.082;18.554;2023-03-21T05:06:15;16.0;;;11.0;;
23360;SDS011;11852;50.082;18.554;2023-03-21T05:07:23;17.0;;;11.0;;
23360;SDS011;11852;50.082;18.554;2023-03-21T05:08:30;19.0;;;13.0;;
23360;SDS011;11852;50.082;18.554;2023-03-21T05:09:37;19.0;;;13.0;;
23360;SDS011;11852;50.082;18.554;2023-03-21T05:10:43;19.0;;;13.0;;
23360;SDS011;11852;50.082;18.554;2023-03-21T05:11:50;19.0;;;13.0;;
23360;SDS011;11852;50.082;18.554;2023-03-21T05:12:57;18.0;;;12.0;;
23360;SDS011;11852;50.082;18.554;2023-03-21T05:14:05;20.0;;;13.0;;
23360;SDS011;11852;50.082;18.554;2023-03-21T05:15:11;19.0;;;13.0;;
23360;SDS011;11852;50.082;18.554;2023-03-21T05:16:18;20.0;;;14.0;;
23360;SDS011;11852;50.082;18.554;2023-03-21T05:17:26;18.0;;;13.0;;
23360;SDS011;11852;50.082;18.554;2023-03-21T05:18:33;18.0;;;12.0;;
23360;SDS011;11852;50.082;18.554;2023-03-21T05:19:40;19.0;;;13.0;;
23360;SDS011;11852;50.082;18.554;2023-03-21T05:20:46;21.0;;;14.0;;
23360;SDS011;11852;50.082;18.554;2023-03-21T05:21:53;18.0;;;13.0;;
23360;SDS011;11852;50.082;18.554;2023-03-21T05:23:00;20.0;;;13.0;;
23360;SDS011;11852;50.082;18.554;2023-03-21T05:24:08;19.0;;;13.0;;
23360;SDS011;11852;50.082;18.554;2023-03-21T05:25:14;18.0;;;12.0;;
23360;SDS011;11852;50.082;18.554;2023-03-21T05:26:21;19.0;;;13.0;;
23360;SDS011;11852;50.082;18.554;2023-03-21T05:27:33;20.0;;;12.0;;
23360;SDS011;11852;50.082;18.554;2023-03-21T05:28:40;18.0;;;12.0;;
23360;SDS011;11852;50.082;18.554;2023-03-21T05:29:47;17.0;;;12.0;;
23360;SDS011;11852;50.082;18.554;2023-03-21T05:30:54;18.0;;;13.0;;
23360;SDS011;11852;50.082;18.554;2023-03-21T05:32:01;18.0;;;12.0;;
23360;SDS011;11852;50.082;18.554;2023-03-21T05:33:08;18.0;;;12.0;;
23360;SDS011;11852;50.082;18.554;2023-03-21T05:34:15;18.0;;;12.0;;
23360;SDS011;11852;50.082;18.554;2023-03-21T05:35:22;18.0;;;13.0;;
23360;SDS011;11852;50.082;18.554;2023-03-21T05:36:29;17.0;;;12.0;;
23360;SDS011;11852;50.082;18.554;2023-03-21T05:37:36;18.0;;;12.0;;
23360;SDS011;11852;50.082;18.554;2023-03-21T05:38:42;17.0;;;12.0;;
23360;SDS011;11852;50.082;18.554;2023-03-21T05:39:49;18.0;;;12.0;;
23360;SDS011;11852;50.082;18.554;2023-03-21T05:40:56;18.0;;;12.0;;
23360;SDS011;11852;50.082;18.554;2023-03-21T05:42:03;19.0;;;13.0;;
23360;SDS011;11852;50.082;18.554;2023-03-21T05:43:11;18.0;;;12.0;;
23360;SDS011;11852;50.082;18.554;2023-03-21T05:44:19;22.0;;;13.0;;
23360;SDS011;11852;50.082;18.554;2023-03-21T05:45:26;20.0;;;12.0;;
23360;SDS011;11852;50.082;18.554;2023-03-21T05:46:36;20.0;;;13.0;;
23360;SDS011;11852;50.082;18.554;2023-03-21T05:47:43;19.0;;;12.0;;
23360;SDS011;11852;50.082;18.554;2023-03-21T05:48:50;19.0;;;11.0;;
23360;SDS011;11852;50.082;18.554;2023-03-21T05:49:58;17.0;;;12.0;;
23360;SDS011;11852;50.082;18.554;2023-03-21T05:51:04;17.0;;;11.0;;
23360;SDS011;11852;50.082;18.554;2023-03-21T05:52:11;17.0;;;11.0;;
23360;SDS011;11852;50.082;18.554;2023-03-21T05:53:18;19.0;;;11.0;;
23360;SDS011;11852;50.082;18.554;2023-03-21T05:54:25;17.0;;;12.0;;
23360;SDS011;11852;50.082;18.554;2023-03-21T05:55:32;17.0;;;12.0;;
23360;SDS011;11852;50.082;18.554;2023-03-21T05:56:39;17.0;;;11.0;;
23360;SDS011;11852;50.082;18.554;2023-03-21T05:57:46;17.0;;;12.0;;
23360;SDS011;11852;50.082;18.554;2023-03-21T05:58:53;20.0;;;12.0;;
23360;SDS011;11852;50.082;18.554;2023-03-21T06:00:00;17.0;;;12.0;;
23360;SDS011;11852;50.082;18.554;2023-03-21T06:01:07;18.0;;;13.0;;
23360;SDS011;11852;50.082;18.554;2023-03-21T06:02:14;18.0;;;12.0;;
23360;SDS011;11852;50.082;18.554;2023-03-21T06:03:21;20.0;;;13.0;;
23360;SDS011;11852;50.082;18.554;2023-03-21T06:04:28;19.0;;;13.0;;
23360;SDS011;11852;50.082;18.554;2023-03-21T06:05:35;19.0;;;13.0;;
23360;SDS011;11852;50.082;18.554;2023-03-21T06:06:42;17.0;;;12.0;;
23360;SDS011;11852;50.082;18.554;2023-03-21T06:07:49;17.0;;;13.0;;
23360;SDS011;11852;50.082;18.554;2023-03-21T06:08:56;19.0;;;12.0;;
23360;SDS011;11852;50.082;18.554;2023-03-21T06:10:03;18.0;;;12.0;;
23360;SDS011;11852;50.082;18.554;2023-03-21T06:12:28;19.0;;;13.0;;
23360;SDS011;11852;50.082;18.554;2023-03-21T06:13:34;19.0;;;13.0;;
23360;SDS011;11852;50.082;18.554;2023-03-21T06:14:41;19.0;;;13.0;;
23360;SDS011;11852;50.082;18.554;2023-03-21T06:15:48;19.0;;;14.0;;
23360;SDS011;11852;50.082;18.554;2023-03-21T06:16:55;18.0;;;13.0;;
23360;SDS011;11852;50.082;18.554;2023-03-21T06:18:02;20.0;;;13.0;;
23360;SDS011;11852;50.082;18.554;2023-03-21T06:19:09;19.0;;;13.0;;
23360;SDS011;11852;50.082;18.554;2023-03-21T06:20:16;20.0;;;13.0;;
23360;SDS011;11852;50.082;18.554;2023-03-21T06:21:23;19.0;;;13.0;;
23360;SDS011;11852;50.082;18.554;2023-03-21T06:22:30;19.0;;;12.0;;
23360;SDS011;11852;50.082;18.554;2023-03-21T06:23:37;18.0;;;13.0;;
23360;SDS011;11852;50.082;18.554;2023-03-21T06:24:44;20.0;;;14.0;;
23360;SDS011;11852;50.082;18.554;2023-03-21T06:25:52;19.0;;;12.0;;
23360;SDS011;11852;50.082;18.554;2023-03-21T06:26:59;21.0;;;12.0;;
23360;SDS011;11852;50.082;18.554;2023-03-21T06:28:05;19.0;;;13.0;;
23360;SDS011;11852;50.082;18.554;2023-03-21T06:29:14;20.0;;;12.0;;
23360;SDS011;11852;50.082;18.554;2023-03-21T06:30:21;21.0;;;13.0;;
23360;SDS011;11852;50.082;18.554;2023-03-21T06:31:28;20.0;;;13.0;;
23360;SDS011;11852;50.082;18.554;2023-03-21T06:32:35;22.0;;;14.0;;
23360;SDS011;11852;50.082;18.554;2023-03-21T06:33:43;21.0;;;13.0;;
23360;SDS011;11852;50.082;18.554;2023-03-21T06:34:49;21.0;;;14.0;;
23360;SDS011;11852;50.082;18.554;2023-03-21T06:35:57;27.0;;;17.0;;
23360;SDS011;11852;50.082;18.554;2023-03-21T06:37:03;28.0;;;18.0;;
23360;SDS011;11852;50.082;18.554;2023-03-21T06:38:10;27.0;;;18.0;;
23360;SDS011;11852;50.082;18.554;2023-03-21T06:39:17;28.0;;;17.0;;
23360;SDS011;11852;50.082;18.554;2023-03-21T06:40:24;30.0;;;18.0;;
23360;SDS011;11852;50.082;18.554;2023-03-21T06:41:31;34.0;;;19.0;;
23360;SDS011;11852;50.082;18.554;2023-03-21T06:42:38;37.0;;;20.0;;
23360;SDS011;11852;50.082;18.554;2023-03-21T06:43:45;31.0;;;19.0;;
23360;SDS011;11852;50.082;18.554;2023-03-21T06:44:52;31.0;;;19.0;;
23360;SDS011;11852;50.082;18.554;2023-03-21T06:45:59;30.0;;;20.0;;
23360;SDS011;11852;50.082;18.554;2023-03-21T06:47:06;30.0;;;20.0;;
23360;SDS011;11852;50.082;18.554;2023-03-21T06:48:13;30.0;;;20.0;;
23360;SDS011;11852;50.082;18.554;2023-03-21T06:49:20;32.0;;;20.0;;
23360;SDS011;11852;50.082;18.554;2023-03-21T06:50:26;33.0;;;20.0;;
23360;SDS011;11852;50.082;18.554;2023-03-21T06:51:33;30.0;;;19.0;;
23360;SDS011;11852;50.082;18.554;2023-03-21T06:52:40;31.0;;;20.0;;
23360;SDS011;11852;50.082;18.554;2023-03-21T06:53:48;28.0;;;18.0;;
23360;SDS011;11852;50.082;18.554;2023-03-21T06:54:55;27.0;;;19.0;;
23360;SDS011;11852;50.082;18.554;2023-03-21T06:56:02;29.0;;;19.0;;
23360;SDS011;11852;50.082;18.554;2023-03-21T06:57:08;30.0;;;20.0;;
23360;SDS011;11852;50.082;18.554;2023-03-21T06:58:15;30.0;;;20.0;;
23360;SDS011;11852;50.082;18.554;2023-03-21T06:59:22;29.0;;;19.0;;
23360;SDS011;11852;50.082;18.554;2023-03-21T07:00:29;33.0;;;21.0;;
23360;SDS011;11852;50.082;18.554;2023-03-21T07:01:36;30.0;;;20.0;;
23360;SDS011;11852;50.082;18.554;2023-03-21T07:02:43;29.0;;;19.0;;
23360;SDS011;11852;50.082;18.554;2023-03-21T07:03:50;28.0;;;19.0;;
23360;SDS011;11852;50.082;18.554;2023-03-21T07:04:57;31.0;;;21.0;;
23360;SDS011;11852;50.082;18.554;2023-03-21T07:06:05;28.0;;;20.0;;
23360;SDS011;11852;50.082;18.554;2023-03-21T07:07:11;30.0;;;20.0;;
23360;SDS011;11852;50.082;18.554;2023-03-21T07:08:18;30.0;;;21.0;;
23360;SDS011;11852;50.082;18.554;2023-03-21T07:09:25;30.0;;;21.0;;
23360;SDS011;11852;50.082;18.554;2023-03-21T07:10:31;29.0;;;20.0;;
23360;SDS011;11852;50.082;18.554;2023-03-21T07:11:38;26.0;;;17.0;;
23360;SDS011;11852;50.082;18.554;2023-03-21T07:12:45;24.0;;;17.0;;
23360;SDS011;11852;50.082;18.554;2023-03-21T07:13:53;25.0;;;18.0;;
23360;SDS011;11852;50.082;18.554;2023-03-21T07:15:01;24.0;;;17.0;;
23360;SDS011;11852;50.082;18.554;2023-03-21T07:16:09;24.0;;;16.0;;
23360;SDS011;11852;50.082;18.554;2023-03-21T07:17:17;22.0;;;16.0;;
23360;SDS011;11852;50.082;18.554;2023-03-21T07:18:25;24.0;;;17.0;;
23360;SDS011;11852;50.082;18.554;2023-03-21T07:19:32;22.0;;;15.0;;
23360;SDS011;11852;50.082;18.554;2023-03-21T07:20:39;24.0;;;16.0;;